sensor_id;sensor_type;location;lat;lon;timestamp;P1;durP1;ratioP1;P2;durP2;ratioP2
17259;SDS011;8746;49.230;9.220;2024-03-02T00:00:00;36.53;;;24.13;;
17259;SDS011;8746;49.230;9.220;2024-03-02T00:02:25;34.37;;;24.67;;
17259;SDS011;8746;49.230;9.220;2024-03-02T00:04:50;30.00;;;21.10;;
17259;SDS011;8746;49.230;9.220;2024-03-02T00:07:16;29.03;;;21.93;;
17259;SDS011;8746;49.230;9.220;2024-03-02T00:09:42;29.10;;;20.47;;
17259;SDS011;8746;49.230;9.220;2024-03-02T00:12:07;29.37;;;19.97;;
17259;SDS011;8746;49.230;9.220;2024-03-02T00:14:33;28.07;;;20.10;;
17259;SDS011;8746;49.230;9.220;2024-03-02T00:16:58;26.17;;;18.77;;
17259;SDS011;8746;49.230;9.220;2024-03-02T00:19:24;21.50;;;17.17;;
17259;SDS011;8746;49.230;9.220;2024-03-02T00:21:50;22.63;;;16.10;;
17259;SDS011;8746;49.230;9.220;2024-03-02T00:24:21;22.10;;;16.33;;
17259;SDS011;8746;49.230;9.220;2024-03-02T00:26:56;24.50;;;17.17;;
17259;SDS011;8746;49.230;9.220;2024-03-02T00:29:21;24.00;;;17.20;;
17259;SDS011;8746;49.230;9.220;2024-03-02T00:31:47;25.10;;;18.57;;
17259;SDS011;8746;49.230;9.220;2024-03-02T00:34:13;22.67;;;16.93;;
17259;SDS011;8746;49.230;9.220;2024-03-02T00:36:41;24.23;;;17.37;;
17259;SDS011;8746;49.230;9.220;2024-03-02T00:39:07;24.30;;;18.43;;
17259;SDS011;8746;49.230;9.220;2024-03-02T00:41:33;24.30;;;17.80;;
17259;SDS011;8746;49.230;9.220;2024-03-02T00:46:34;24.63;;;15.97;;
17259;SDS011;8746;49.230;9.220;2024-03-02T00:49:02;22.50;;;16.90;;
17259;SDS011;8746;49.230;9.220;2024-03-02T00:51:32;21.83;;;16.20;;
17259;SDS011;8746;49.230;9.220;2024-03-02T00:54:01;22.73;;;17.17;;
17259;SDS011;8746;49.230;9.220;2024-03-02T00:56:29;23.40;;;17.40;;
17259;SDS011;8746;49.230;9.220;2024-03-02T00:58:55;20.73;;;16.17;;
17259;SDS011;8746;49.230;9.220;2024-03-02T01:01:21;20.67;;;16.63;;
17259;SDS011;8746;49.230;9.220;2024-03-02T01:03:47;21.60;;;16.63;;
17259;SDS011;8746;49.230;9.220;2024-03-02T01:06:14;24.23;;;17.17;;
17259;SDS011;8746;49.230;9.220;2024-03-02T01:08:40;22.40;;;16.83;;
17259;SDS011;8746;49.230;9.220;2024-03-02T01:11:05;25.03;;;16.77;;
17259;SDS011;8746;49.230;9.220;2024-03-02T01:13:31;26.90;;;17.43;;
17259;SDS011;8746;49.230;9.220;2024-03-02T01:15:56;24.83;;;17.70;;
17259;SDS011;8746;49.230;9.220;2024-03-02T01:18:22;25.83;;;17.27;;
17259;SDS011;8746;49.230;9.220;2024-03-02T01:20:48;21.33;;;16.83;;
17259;SDS011;8746;49.230;9.220;2024-03-02T01:23:16;19.77;;;16.03;;
17259;SDS011;8746;49.230;9.220;2024-03-02T01:25:42;21.77;;;16.97;;
17259;SDS011;8746;49.230;9.220;2024-03-02T01:28:07;23.73;;;17.33;;
17259;SDS011;8746;49.230;9.220;2024-03-02T01:30:33;23.70;;;18.20;;
17259;SDS011;8746;49.230;9.220;2024-03-02T01:32:58;23.33;;;17.13;;
17259;SDS011;8746;49.230;9.220;2024-03-02T01:35:25;22.37;;;16.67;;
17259;SDS011;8746;49.230;9.220;2024-03-02T01:37:51;25.10;;;16.90;;
17259;SDS011;8746;49.230;9.220;2024-03-02T01:40:17;25.47;;;18.60;;
17259;SDS011;8746;49.230;9.220;2024-03-02T01:42:42;23.53;;;17.93;;
17259;SDS011;8746;49.230;9.220;2024-03-02T01:45:08;25.73;;;18.63;;
17259;SDS011;8746;49.230;9.220;2024-03-02T01:47:34;24.90;;;17.43;;
17259;SDS011;8746;49.230;9.220;2024-03-02T01:50:00;21.73;;;17.13;;
17259;SDS011;8746;49.230;9.220;2024-03-02T01:52:26;21.30;;;16.50;;
17259;SDS011;8746;49.230;9.220;2024-03-02T01:54:52;21.87;;;17.37;;
17259;SDS011;8746;49.230;9.220;2024-03-02T01:57:18;22.97;;;16.63;;
17259;SDS011;8746;49.230;9.220;2024-03-02T01:59:44;21.50;;;16.30;;
17259;SDS011;8746;49.230;9.220;2024-03-02T02:02:09;22.70;;;15.83;;
17259;SDS011;8746;49.230;9.220;2024-03-02T02:04:34;20.97;;;16.03;;
17259;SDS011;8746;49.230;9.220;2024-03-02T02:07:00;24.50;;;16.43;;
17259;SDS011;8746;49.230;9.220;2024-03-02T02:09:25;21.83;;;16.00;;
17259;SDS011;8746;49.230;9.220;2024-03-02T02:11:51;23.60;;;17.90;;
17259;SDS011;8746;49.230;9.220;2024-03-02T02:14:17;22.13;;;16.53;;
17259;SDS011;8746;49.230;9.220;2024-03-02T02:16:42;20.13;;;16.70;;
17259;SDS011;8746;49.230;9.220;2024-03-02T02:19:08;22.67;;;17.33;;
17259;SDS011;8746;49.230;9.220;2024-03-02T02:21:34;23.30;;;17.53;;
17259;SDS011;8746;49.230;9.220;2024-03-02T02:23:59;22.27;;;16.70;;
17259;SDS011;8746;49.230;9.220;2024-03-02T02:26:26;23.27;;;17.67;;
17259;SDS011;8746;49.230;9.220;2024-03-02T02:28:51;21.13;;;16.23;;
17259;SDS011;8746;49.230;9.220;2024-03-02T02:31:17;22.03;;;16.33;;
17259;SDS011;8746;49.230;9.220;2024-03-02T02:33:42;19.93;;;15.63;;
17259;SDS011;8746;49.230;9.220;2024-03-02T02:36:08;21.37;;;16.00;;
17259;SDS011;8746;49.230;9.220;2024-03-02T02:38:36;21.37;;;16.40;;
17259;SDS011;8746;49.230;9.220;2024-03-02T02:41:03;21.67;;;15.73;;
17259;SDS011;8746;49.230;9.220;2024-03-02T02:43:29;21.03;;;16.27;;
17259;SDS011;8746;49.230;9.220;2024-03-02T02:45:57;20.13;;;15.87;;
17259;SDS011;8746;49.230;9.220;2024-03-02T02:48:22;19.87;;;15.13;;
17259;SDS011;8746;49.230;9.220;2024-03-02T02:50:47;21.50;;;16.33;;
17259;SDS011;8746;49.230;9.220;2024-03-02T02:53:13;19.97;;;14.33;;
17259;SDS011;8746;49.230;9.220;2024-03-02T02:55:41;22.03;;;15.30;;
17259;SDS011;8746;49.230;9.220;2024-03-02T02:58:08;20.30;;;15.77;;
17259;SDS011;8746;49.230;9.220;2024-03-02T03:00:34;21.53;;;14.83;;
17259;SDS011;8746;49.230;9.220;2024-03-02T03:02:59;20.27;;;15.27;;
17259;SDS011;8746;49.230;9.220;2024-03-02T03:05:25;21.97;;;15.63;;
17259;SDS011;8746;49.230;9.220;2024-03-02T03:07:50;21.20;;;15.03;;
17259;SDS011;8746;49.230;9.220;2024-03-02T03:10:16;20.07;;;14.90;;
17259;SDS011;8746;49.230;9.220;2024-03-02T03:12:42;19.67;;;15.40;;
17259;SDS011;8746;49.230;9.220;2024-03-02T03:15:08;19.43;;;15.00;;
17259;SDS011;8746;49.230;9.220;2024-03-02T03:17:34;19.70;;;14.97;;
17259;SDS011;8746;49.230;9.220;2024-03-02T03:20:00;18.83;;;14.53;;
17259;SDS011;8746;49.230;9.220;2024-03-02T03:22:27;19.23;;;14.07;;
17259;SDS011;8746;49.230;9.220;2024-03-02T03:24:53;20.63;;;14.67;;
17259;SDS011;8746;49.230;9.220;2024-03-02T03:27:18;20.93;;;15.20;;
17259;SDS011;8746;49.230;9.220;2024-03-02T03:29:44;17.10;;;14.13;;
17259;SDS011;8746;49.230;9.220;2024-03-02T03:32:10;18.37;;;13.03;;
17259;SDS011;8746;49.230;9.220;2024-03-02T03:34:35;15.93;;;12.93;;
17259;SDS011;8746;49.230;9.220;2024-03-02T03:37:01;19.23;;;14.50;;
17259;SDS011;8746;49.230;9.220;2024-03-02T03:39:27;18.70;;;14.40;;
17259;SDS011;8746;49.230;9.220;2024-03-02T03:41:53;19.13;;;14.07;;
17259;SDS011;8746;49.230;9.220;2024-03-02T03:44:18;17.20;;;13.67;;
17259;SDS011;8746;49.230;9.220;2024-03-02T03:46:43;17.93;;;14.17;;
17259;SDS011;8746;49.230;9.220;2024-03-02T03:49:08;18.67;;;13.43;;
17259;SDS011;8746;49.230;9.220;2024-03-02T03:51:34;19.23;;;14.33;;
17259;SDS011;8746;49.230;9.220;2024-03-02T03:54:00;18.40;;;13.30;;
17259;SDS011;8746;49.230;9.220;2024-03-02T03:56:26;15.27;;;12.43;;
17259;SDS011;8746;49.230;9.220;2024-03-02T03:58:51;16.47;;;13.20;;
17259;SDS011;8746;49.230;9.220;2024-03-02T04:01:17;18.87;;;13.97;;
17259;SDS011;8746;49.230;9.220;2024-03-02T04:03:43;18.73;;;13.10;;
17259;SDS011;8746;49.230;9.220;2024-03-02T04:06:08;16.97;;;12.83;;
17259;SDS011;8746;49.230;9.220;2024-03-02T04:08:33;18.67;;;13.20;;
17259;SDS011;8746;49.230;9.220;2024-03-02T04:10:58;18.87;;;13.43;;
17259;SDS011;8746;49.230;9.220;2024-03-02T04:13:24;19.27;;;13.83;;
17259;SDS011;8746;49.230;9.220;2024-03-02T04:15:49;22.20;;;13.43;;
17259;SDS011;8746;49.230;9.220;2024-03-02T04:18:14;18.03;;;13.00;;
17259;SDS011;8746;49.230;9.220;2024-03-02T04:20:40;19.53;;;13.00;;
17259;SDS011;8746;49.230;9.220;2024-03-02T04:23:05;20.27;;;12.87;;
17259;SDS011;8746;49.230;9.220;2024-03-02T04:25:30;16.13;;;12.27;;
17259;SDS011;8746;49.230;9.220;2024-03-02T04:27:56;16.43;;;12.33;;
17259;SDS011;8746;49.230;9.220;2024-03-02T04:30:21;16.73;;;12.73;;
17259;SDS011;8746;49.230;9.220;2024-03-02T04:32:46;18.30;;;12.27;;
17259;SDS011;8746;49.230;9.220;2024-03-02T04:35:12;17.07;;;12.97;;
17259;SDS011;8746;49.230;9.220;2024-03-02T04:37:38;14.73;;;12.30;;
17259;SDS011;8746;49.230;9.220;2024-03-02T04:40:03;17.33;;;12.57;;
17259;SDS011;8746;49.230;9.220;2024-03-02T04:42:33;17.63;;;13.07;;
17259;SDS011;8746;49.230;9.220;2024-03-02T04:44:58;16.03;;;12.30;;
17259;SDS011;8746;49.230;9.220;2024-03-02T04:47:24;19.43;;;12.17;;
17259;SDS011;8746;49.230;9.220;2024-03-02T04:49:49;17.17;;;12.20;;
17259;SDS011;8746;49.230;9.220;2024-03-02T04:52:15;16.60;;;12.20;;
17259;SDS011;8746;49.230;9.220;2024-03-02T04:54:41;16.37;;;12.33;;
17259;SDS011;8746;49.230;9.220;2024-03-02T04:57:25;15.47;;;12.07;;
17259;SDS011;8746;49.230;9.220;2024-03-02T04:59:50;19.57;;;12.40;;
17259;SDS011;8746;49.230;9.220;2024-03-02T05:02:15;15.67;;;12.17;;
17259;SDS011;8746;49.230;9.220;2024-03-02T05:04:41;16.77;;;12.10;;
17259;SDS011;8746;49.230;9.220;2024-03-02T05:07:06;18.97;;;12.23;;
17259;SDS011;8746;49.230;9.220;2024-03-02T05:09:32;16.77;;;12.23;;
17259;SDS011;8746;49.230;9.220;2024-03-02T05:11:58;16.97;;;11.97;;
17259;SDS011;8746;49.230;9.220;2024-03-02T05:14:28;17.70;;;12.40;;
17259;SDS011;8746;49.230;9.220;2024-03-02T05:16:54;15.20;;;11.83;;
17259;SDS011;8746;49.230;9.220;2024-03-02T05:19:19;17.63;;;12.93;;
17259;SDS011;8746;49.230;9.220;2024-03-02T05:21:44;15.43;;;12.53;;
17259;SDS011;8746;49.230;9.220;2024-03-02T05:24:10;16.00;;;11.93;;
17259;SDS011;8746;49.230;9.220;2024-03-02T05:26:35;15.53;;;11.50;;
17259;SDS011;8746;49.230;9.220;2024-03-02T05:29:00;17.70;;;12.13;;
17259;SDS011;8746;49.230;9.220;2024-03-02T05:31:26;16.70;;;12.50;;
17259;SDS011;8746;49.230;9.220;2024-03-02T05:33:51;13.23;;;11.23;;
17259;SDS011;8746;49.230;9.220;2024-03-02T05:36:17;16.60;;;11.57;;
17259;SDS011;8746;49.230;9.220;2024-03-02T05:38:42;16.33;;;12.37;;
17259;SDS011;8746;49.230;9.220;2024-03-02T05:41:08;18.97;;;12.37;;
17259;SDS011;8746;49.230;9.220;2024-03-02T05:43:33;16.83;;;12.43;;
17259;SDS011;8746;49.230;9.220;2024-03-02T05:45:58;15.43;;;11.43;;
17259;SDS011;8746;49.230;9.220;2024-03-02T05:48:23;15.30;;;12.30;;
17259;SDS011;8746;49.230;9.220;2024-03-02T05:50:49;16.07;;;12.63;;
17259;SDS011;8746;49.230;9.220;2024-03-02T05:53:14;15.23;;;11.67;;
17259;SDS011;8746;49.230;9.220;2024-03-02T05:55:40;14.47;;;11.60;;
17259;SDS011;8746;49.230;9.220;2024-03-02T05:58:06;15.27;;;11.70;;
17259;SDS011;8746;49.230;9.220;2024-03-02T06:00:31;15.17;;;12.13;;
17259;SDS011;8746;49.230;9.220;2024-03-02T06:02:57;15.43;;;12.03;;
17259;SDS011;8746;49.230;9.220;2024-03-02T06:05:22;16.57;;;11.77;;
17259;SDS011;8746;49.230;9.220;2024-03-02T06:07:48;15.50;;;12.10;;
17259;SDS011;8746;49.230;9.220;2024-03-02T06:10:13;16.27;;;12.33;;
17259;SDS011;8746;49.230;9.220;2024-03-02T06:12:39;15.90;;;12.47;;
17259;SDS011;8746;49.230;9.220;2024-03-02T06:15:05;16.47;;;12.60;;
17259;SDS011;8746;49.230;9.220;2024-03-02T06:17:30;18.40;;;13.23;;
17259;SDS011;8746;49.230;9.220;2024-03-02T06:19:55;18.03;;;13.60;;
17259;SDS011;8746;49.230;9.220;2024-03-02T06:22:21;19.40;;;13.23;;
17259;SDS011;8746;49.230;9.220;2024-03-02T06:24:48;15.73;;;13.00;;
17259;SDS011;8746;49.230;9.220;2024-03-02T06:27:13;17.50;;;13.53;;
17259;SDS011;8746;49.230;9.220;2024-03-02T06:29:39;18.13;;;13.10;;
17259;SDS011;8746;49.230;9.220;2024-03-02T06:32:04;17.10;;;12.33;;
17259;SDS011;8746;49.230;9.220;2024-03-02T06:34:29;16.03;;;13.00;;
17259;SDS011;8746;49.230;9.220;2024-03-02T06:36:55;15.43;;;12.43;;
17259;SDS011;8746;49.230;9.220;2024-03-02T06:39:20;17.13;;;13.17;;
17259;SDS011;8746;49.230;9.220;2024-03-02T06:41:46;16.93;;;12.10;;
17259;SDS011;8746;49.230;9.220;2024-03-02T06:44:12;15.23;;;12.13;;
17259;SDS011;8746;49.230;9.220;2024-03-02T06:46:38;19.33;;;15.37;;
17259;SDS011;8746;49.230;9.220;2024-03-02T06:49:03;22.23;;;16.20;;
17259;SDS011;8746;49.230;9.220;2024-03-02T06:51:29;21.23;;;15.47;;
17259;SDS011;8746;49.230;9.220;2024-03-02T06:53:55;19.67;;;15.03;;
17259;SDS011;8746;49.230;9.220;2024-03-02T06:56:20;17.17;;;14.03;;
17259;SDS011;8746;49.230;9.220;2024-03-02T06:58:46;19.63;;;14.53;;
17259;SDS011;8746;49.230;9.220;2024-03-02T07:01:11;19.93;;;13.83;;
17259;SDS011;8746;49.230;9.220;2024-03-02T07:03:37;19.50;;;14.23;;
17259;SDS011;8746;49.230;9.220;2024-03-02T07:06:04;18.23;;;14.47;;
17259;SDS011;8746;49.230;9.220;2024-03-02T07:08:29;19.13;;;14.23;;
17259;SDS011;8746;49.230;9.220;2024-03-02T07:10:55;18.97;;;14.13;;
17259;SDS011;8746;49.230;9.220;2024-03-02T07:13:21;19.47;;;14.83;;
17259;SDS011;8746;49.230;9.220;2024-03-02T07:15:46;18.97;;;14.00;;
17259;SDS011;8746;49.230;9.220;2024-03-02T07:18:31;17.93;;;13.77;;
17259;SDS011;8746;49.230;9.220;2024-03-02T07:20:58;20.73;;;15.07;;
17259;SDS011;8746;49.230;9.220;2024-03-02T07:23:25;17.10;;;13.90;;
17259;SDS011;8746;49.230;9.220;2024-03-02T07:25:55;16.47;;;12.57;;
17259;SDS011;8746;49.230;9.220;2024-03-02T07:28:24;16.80;;;13.53;;
17259;SDS011;8746;49.230;9.220;2024-03-02T07:31:03;17.60;;;13.37;;
17259;SDS011;8746;49.230;9.220;2024-03-02T07:33:29;16.13;;;13.80;;
17259;SDS011;8746;49.230;9.220;2024-03-02T07:35:57;19.47;;;13.50;;
17259;SDS011;8746;49.230;9.220;2024-03-02T07:38:25;17.27;;;12.90;;
17259;SDS011;8746;49.230;9.220;2024-03-02T07:40:52;17.17;;;13.27;;
17259;SDS011;8746;49.230;9.220;2024-03-02T07:43:20;20.63;;;14.37;;
17259;SDS011;8746;49.230;9.220;2024-03-02T07:45:46;17.70;;;14.20;;
17259;SDS011;8746;49.230;9.220;2024-03-02T07:48:12;16.90;;;14.13;;
17259;SDS011;8746;49.230;9.220;2024-03-02T07:50:38;20.30;;;14.77;;
17259;SDS011;8746;49.230;9.220;2024-03-02T07:53:04;18.73;;;14.47;;
17259;SDS011;8746;49.230;9.220;2024-03-02T07:55:30;17.57;;;13.83;;
17259;SDS011;8746;49.230;9.220;2024-03-02T07:57:56;19.10;;;13.97;;
17259;SDS011;8746;49.230;9.220;2024-03-02T08:00:22;15.43;;;12.77;;
17259;SDS011;8746;49.230;9.220;2024-03-02T08:02:48;17.10;;;14.03;;
17259;SDS011;8746;49.230;9.220;2024-03-02T08:05:16;20.10;;;13.77;;
17259;SDS011;8746;49.230;9.220;2024-03-02T08:07:41;18.90;;;14.77;;
17259;SDS011;8746;49.230;9.220;2024-03-02T08:10:09;19.03;;;14.77;;
17259;SDS011;8746;49.230;9.220;2024-03-02T08:12:34;20.03;;;15.33;;
17259;SDS011;8746;49.230;9.220;2024-03-02T08:15:00;20.03;;;15.87;;
17259;SDS011;8746;49.230;9.220;2024-03-02T08:17:25;18.70;;;15.03;;
17259;SDS011;8746;49.230;9.220;2024-03-02T08:19:51;16.73;;;14.23;;
17259;SDS011;8746;49.230;9.220;2024-03-02T08:22:17;18.43;;;13.97;;
17259;SDS011;8746;49.230;9.220;2024-03-02T08:24:42;17.43;;;14.13;;
17259;SDS011;8746;49.230;9.220;2024-03-02T08:27:08;17.30;;;14.27;;
17259;SDS011;8746;49.230;9.220;2024-03-02T08:29:34;20.57;;;14.30;;
17259;SDS011;8746;49.230;9.220;2024-03-02T08:31:59;19.10;;;14.17;;
17259;SDS011;8746;49.230;9.220;2024-03-02T08:34:25;19.73;;;15.10;;
17259;SDS011;8746;49.230;9.220;2024-03-02T08:36:50;18.00;;;14.30;;
17259;SDS011;8746;49.230;9.220;2024-03-02T08:39:16;18.87;;;15.17;;
17259;SDS011;8746;49.230;9.220;2024-03-02T08:41:44;19.73;;;16.10;;
17259;SDS011;8746;49.230;9.220;2024-03-02T08:44:10;19.30;;;15.17;;
17259;SDS011;8746;49.230;9.220;2024-03-02T08:46:35;23.27;;;17.07;;
17259;SDS011;8746;49.230;9.220;2024-03-02T08:49:01;21.73;;;15.23;;
17259;SDS011;8746;49.230;9.220;2024-03-02T08:51:26;19.53;;;15.43;;
17259;SDS011;8746;49.230;9.220;2024-03-02T08:53:52;20.83;;;15.97;;
17259;SDS011;8746;49.230;9.220;2024-03-02T08:56:17;21.67;;;15.17;;
17259;SDS011;8746;49.230;9.220;2024-03-02T08:58:43;19.03;;;15.40;;
17259;SDS011;8746;49.230;9.220;2024-03-02T09:01:09;22.57;;;16.07;;
17259;SDS011;8746;49.230;9.220;2024-03-02T09:03:35;19.47;;;15.97;;
17259;SDS011;8746;49.230;9.220;2024-03-02T09:06:02;20.67;;;15.50;;
17259;SDS011;8746;49.230;9.220;2024-03-02T09:08:27;22.50;;;16.30;;
17259;SDS011;8746;49.230;9.220;2024-03-02T09:10:53;23.33;;;16.77;;
17259;SDS011;8746;49.230;9.220;2024-03-02T09:13:19;24.50;;;16.90;;
17259;SDS011;8746;49.230;9.220;2024-03-02T09:15:45;24.67;;;17.27;;
17259;SDS011;8746;49.230;9.220;2024-03-02T09:18:11;23.90;;;17.30;;
17259;SDS011;8746;49.230;9.220;2024-03-02T09:20:36;22.47;;;17.53;;
17259;SDS011;8746;49.230;9.220;2024-03-02T09:23:01;22.20;;;15.60;;
17259;SDS011;8746;49.230;9.220;2024-03-02T09:25:27;18.37;;;14.53;;
17259;SDS011;8746;49.230;9.220;2024-03-02T09:27:52;18.27;;;14.97;;
17259;SDS011;8746;49.230;9.220;2024-03-02T09:30:17;18.37;;;13.83;;
17259;SDS011;8746;49.230;9.220;2024-03-02T09:32:43;16.67;;;13.73;;
17259;SDS011;8746;49.230;9.220;2024-03-02T09:35:08;18.40;;;13.87;;
17259;SDS011;8746;49.230;9.220;2024-03-02T09:37:34;17.70;;;13.67;;
17259;SDS011;8746;49.230;9.220;2024-03-02T09:40:00;20.93;;;14.57;;
17259;SDS011;8746;49.230;9.220;2024-03-02T09:42:25;16.70;;;14.10;;
17259;SDS011;8746;49.230;9.220;2024-03-02T09:44:51;18.87;;;14.60;;
17259;SDS011;8746;49.230;9.220;2024-03-02T09:47:17;17.03;;;13.53;;
17259;SDS011;8746;49.230;9.220;2024-03-02T09:49:43;17.83;;;12.80;;
17259;SDS011;8746;49.230;9.220;2024-03-02T09:52:09;14.77;;;12.10;;
17259;SDS011;8746;49.230;9.220;2024-03-02T09:54:35;15.27;;;12.67;;
17259;SDS011;8746;49.230;9.220;2024-03-02T09:57:02;15.17;;;12.33;;
17259;SDS011;8746;49.230;9.220;2024-03-02T09:59:27;14.10;;;11.30;;
17259;SDS011;8746;49.230;9.220;2024-03-02T10:04:29;13.17;;;10.97;;
17259;SDS011;8746;49.230;9.220;2024-03-02T10:07:12;14.30;;;11.33;;
17259;SDS011;8746;49.230;9.220;2024-03-02T10:09:42;13.20;;;10.10;;
17259;SDS011;8746;49.230;9.220;2024-03-02T10:12:09;11.70;;;9.97;;
17259;SDS011;8746;49.230;9.220;2024-03-02T10:14:36;12.37;;;10.00;;
17259;SDS011;8746;49.230;9.220;2024-03-02T10:17:03;10.93;;;9.80;;
17259;SDS011;8746;49.230;9.220;2024-03-02T10:19:30;9.83;;;8.80;;
17259;SDS011;8746;49.230;9.220;2024-03-02T10:22:00;10.63;;;8.90;;
17259;SDS011;8746;49.230;9.220;2024-03-02T10:24:44;9.23;;;8.23;;
17259;SDS011;8746;49.230;9.220;2024-03-02T10:27:22;9.73;;;8.37;;
17259;SDS011;8746;49.230;9.220;2024-03-02T10:29:48;10.07;;;8.63;;
17259;SDS011;8746;49.230;9.220;2024-03-02T10:32:14;8.33;;;7.53;;
17259;SDS011;8746;49.230;9.220;2024-03-02T10:34:41;8.93;;;8.03;;
17259;SDS011;8746;49.230;9.220;2024-03-02T10:37:07;7.95;;;7.13;;
17259;SDS011;8746;49.230;9.220;2024-03-02T10:39:34;7.72;;;6.93;;
17259;SDS011;8746;49.230;9.220;2024-03-02T10:42:04;8.13;;;7.32;;
17259;SDS011;8746;49.230;9.220;2024-03-02T10:44:31;7.38;;;6.57;;
17259;SDS011;8746;49.230;9.220;2024-03-02T10:46:57;6.30;;;5.70;;
17259;SDS011;8746;49.230;9.220;2024-03-02T10:49:25;6.47;;;5.75;;
17259;SDS011;8746;49.230;9.220;2024-03-02T10:51:51;6.28;;;5.70;;
17259;SDS011;8746;49.230;9.220;2024-03-02T10:54:16;5.85;;;5.35;;
17259;SDS011;8746;49.230;9.220;2024-03-02T10:56:44;5.50;;;5.00;;
17259;SDS011;8746;49.230;9.220;2024-03-02T11:01:59;5.38;;;4.88;;
17259;SDS011;8746;49.230;9.220;2024-03-02T11:04:27;6.63;;;6.03;;
17259;SDS011;8746;49.230;9.220;2024-03-02T11:07:04;6.00;;;5.50;;
17259;SDS011;8746;49.230;9.220;2024-03-02T11:09:32;6.00;;;5.40;;
17259;SDS011;8746;49.230;9.220;2024-03-02T11:12:03;5.93;;;5.20;;
17259;SDS011;8746;49.230;9.220;2024-03-02T11:14:34;5.22;;;4.75;;
17259;SDS011;8746;49.230;9.220;2024-03-02T11:17:05;5.47;;;4.97;;
17259;SDS011;8746;49.230;9.220;2024-03-02T11:19:31;5.25;;;4.75;;
17259;SDS011;8746;49.230;9.220;2024-03-02T11:21:59;5.57;;;4.93;;
17259;SDS011;8746;49.230;9.220;2024-03-02T11:27:01;5.25;;;4.38;;
17259;SDS011;8746;49.230;9.220;2024-03-02T11:32:19;4.90;;;4.40;;
17259;SDS011;8746;49.230;9.220;2024-03-02T11:34:47;5.35;;;4.40;;
17259;SDS011;8746;49.230;9.220;2024-03-02T11:37:14;4.65;;;4.25;;
17259;SDS011;8746;49.230;9.220;2024-03-02T11:39:42;3.97;;;3.60;;
17259;SDS011;8746;49.230;9.220;2024-03-02T11:42:09;4.55;;;3.85;;
17259;SDS011;8746;49.230;9.220;2024-03-02T11:44:36;4.25;;;3.85;;
17259;SDS011;8746;49.230;9.220;2024-03-02T11:47:05;4.97;;;4.28;;
17259;SDS011;8746;49.230;9.220;2024-03-02T11:49:39;4.57;;;4.18;;
17259;SDS011;8746;49.230;9.220;2024-03-02T11:52:06;4.57;;;4.18;;
17259;SDS011;8746;49.230;9.220;2024-03-02T11:54:33;4.25;;;3.88;;
17259;SDS011;8746;49.230;9.220;2024-03-02T11:57:02;4.18;;;3.78;;
17259;SDS011;8746;49.230;9.220;2024-03-02T11:59:31;4.32;;;3.92;;
17259;SDS011;8746;49.230;9.220;2024-03-02T12:01:57;4.45;;;4.05;;
17259;SDS011;8746;49.230;9.220;2024-03-02T12:04:23;4.10;;;3.70;;
17259;SDS011;8746;49.230;9.220;2024-03-02T12:06:55;3.50;;;3.17;;
17259;SDS011;8746;49.230;9.220;2024-03-02T12:09:27;3.60;;;3.30;;
17259;SDS011;8746;49.230;9.220;2024-03-02T12:12:05;3.95;;;3.55;;
17259;SDS011;8746;49.230;9.220;2024-03-02T12:14:33;4.33;;;3.93;;
17259;SDS011;8746;49.230;9.220;2024-03-02T12:16:59;3.50;;;3.20;;
17259;SDS011;8746;49.230;9.220;2024-03-02T12:19:28;3.40;;;3.10;;
17259;SDS011;8746;49.230;9.220;2024-03-02T12:21:55;3.72;;;2.95;;
17259;SDS011;8746;49.230;9.220;2024-03-02T12:24:21;3.00;;;2.70;;
17259;SDS011;8746;49.230;9.220;2024-03-02T12:26:49;3.23;;;2.70;;
17259;SDS011;8746;49.230;9.220;2024-03-02T12:29:15;2.93;;;2.73;;
17259;SDS011;8746;49.230;9.220;2024-03-02T12:31:44;2.40;;;2.20;;
17259;SDS011;8746;49.230;9.220;2024-03-02T12:34:15;3.30;;;2.30;;
17259;SDS011;8746;49.230;9.220;2024-03-02T12:36:42;2.33;;;2.13;;
17259;SDS011;8746;49.230;9.220;2024-03-02T12:39:08;2.40;;;2.20;;
17259;SDS011;8746;49.230;9.220;2024-03-02T12:41:38;2.20;;;2.00;;
17259;SDS011;8746;49.230;9.220;2024-03-02T12:44:04;2.60;;;2.40;;
17259;SDS011;8746;49.230;9.220;2024-03-02T12:46:31;2.03;;;1.80;;
17259;SDS011;8746;49.230;9.220;2024-03-02T12:48:57;2.10;;;2.00;;
17259;SDS011;8746;49.230;9.220;2024-03-02T12:51:24;2.27;;;1.90;;
17259;SDS011;8746;49.230;9.220;2024-03-02T12:53:53;2.33;;;2.00;;
17259;SDS011;8746;49.230;9.220;2024-03-02T12:56:20;2.07;;;1.97;;
17259;SDS011;8746;49.230;9.220;2024-03-02T12:58:45;2.67;;;2.47;;
17259;SDS011;8746;49.230;9.220;2024-03-02T13:01:10;2.60;;;1.93;;
17259;SDS011;8746;49.230;9.220;2024-03-02T13:03:39;1.77;;;1.67;;
17259;SDS011;8746;49.230;9.220;2024-03-02T13:06:05;2.70;;;1.90;;
17259;SDS011;8746;49.230;9.220;2024-03-02T13:08:31;3.90;;;2.00;;
17259;SDS011;8746;49.230;9.220;2024-03-02T13:10:58;2.40;;;2.20;;
17259;SDS011;8746;49.230;9.220;2024-03-02T13:13:23;1.90;;;1.80;;
17259;SDS011;8746;49.230;9.220;2024-03-02T13:15:50;2.17;;;1.60;;
17259;SDS011;8746;49.230;9.220;2024-03-02T13:18:20;2.33;;;1.80;;
17259;SDS011;8746;49.230;9.220;2024-03-02T13:20:46;1.60;;;1.50;;
17259;SDS011;8746;49.230;9.220;2024-03-02T13:23:12;2.30;;;2.10;;
17259;SDS011;8746;49.230;9.220;2024-03-02T13:25:37;1.97;;;1.77;;
17259;SDS011;8746;49.230;9.220;2024-03-02T13:28:03;2.33;;;1.67;;
17259;SDS011;8746;49.230;9.220;2024-03-02T13:30:28;1.73;;;1.63;;
17259;SDS011;8746;49.230;9.220;2024-03-02T13:32:54;1.73;;;1.63;;
17259;SDS011;8746;49.230;9.220;2024-03-02T13:35:19;1.60;;;1.50;;
17259;SDS011;8746;49.230;9.220;2024-03-02T13:37:45;1.83;;;1.50;;
17259;SDS011;8746;49.230;9.220;2024-03-02T13:40:10;1.77;;;1.47;;
17259;SDS011;8746;49.230;9.220;2024-03-02T13:42:39;1.40;;;1.10;;
17259;SDS011;8746;49.230;9.220;2024-03-02T13:45:05;1.70;;;1.60;;
17259;SDS011;8746;49.230;9.220;2024-03-02T13:47:31;2.00;;;1.10;;
17259;SDS011;8746;49.230;9.220;2024-03-02T13:49:57;1.17;;;1.10;;
17259;SDS011;8746;49.230;9.220;2024-03-02T13:52:22;1.43;;;1.33;;
17259;SDS011;8746;49.230;9.220;2024-03-02T13:54:49;0.90;;;0.90;;
17259;SDS011;8746;49.230;9.220;2024-03-02T13:57:14;1.30;;;1.20;;
17259;SDS011;8746;49.230;9.220;2024-03-02T13:59:40;1.00;;;1.00;;
17259;SDS011;8746;49.230;9.220;2024-03-02T14:02:07;1.10;;;1.08;;
17259;SDS011;8746;49.230;9.220;2024-03-02T14:04:34;1.27;;;1.05;;
17259;SDS011;8746;49.230;9.220;2024-03-02T14:07:00;0.93;;;0.93;;
17259;SDS011;8746;49.230;9.220;2024-03-02T14:09:26;0.90;;;0.90;;
17259;SDS011;8746;49.230;9.220;2024-03-02T14:11:52;0.90;;;0.90;;
17259;SDS011;8746;49.230;9.220;2024-03-02T14:14:18;1.00;;;1.00;;
17259;SDS011;8746;49.230;9.220;2024-03-02T14:16:43;1.10;;;1.00;;
17259;SDS011;8746;49.230;9.220;2024-03-02T14:19:10;1.17;;;1.10;;
17259;SDS011;8746;49.230;9.220;2024-03-02T14:21:36;0.80;;;0.80;;
17259;SDS011;8746;49.230;9.220;2024-03-02T14:24:02;1.00;;;1.00;;
17259;SDS011;8746;49.230;9.220;2024-03-02T14:26:27;0.77;;;0.77;;
17259;SDS011;8746;49.230;9.220;2024-03-02T14:28:53;1.25;;;1.20;;
17259;SDS011;8746;49.230;9.220;2024-03-02T14:31:19;2.78;;;1.25;;
17259;SDS011;8746;49.230;9.220;2024-03-02T14:33:45;1.23;;;1.00;;
17259;SDS011;8746;49.230;9.220;2024-03-02T14:36:10;1.00;;;1.00;;
17259;SDS011;8746;49.230;9.220;2024-03-02T14:38:36;4.10;;;1.10;;
17259;SDS011;8746;49.230;9.220;2024-03-02T14:41:02;1.00;;;1.00;;
17259;SDS011;8746;49.230;9.220;2024-03-02T14:43:28;1.13;;;1.08;;
17259;SDS011;8746;49.230;9.220;2024-03-02T14:45:53;1.35;;;1.00;;
17259;SDS011;8746;49.230;9.220;2024-03-02T14:48:19;0.90;;;0.90;;
17259;SDS011;8746;49.230;9.220;2024-03-02T14:50:45;2.00;;;0.90;;